sensor_id;sensor_type;location;lat;lon;timestamp;P1;durP1;ratioP1;P2;durP2;ratioP2
38909;SDS011;24676;51.360;12.354;2023-02-28T00:00:48;0.82;;;0.80;;
38909;SDS011;24676;51.360;12.354;2023-02-28T00:03:32;0.47;;;0.47;;
38909;SDS011;24676;51.360;12.354;2023-02-28T00:06:18;1.65;;;0.50;;
38909;SDS011;24676;51.360;12.354;2023-02-28T00:09:04;6.28;;;1.27;;
38909;SDS011;24676;51.360;12.354;2023-02-28T00:11:48;0.47;;;0.45;;
38909;SDS011;24676;51.360;12.354;2023-02-28T00:14:33;0.80;;;0.60;;
38909;SDS011;24676;51.360;12.354;2023-02-28T00:17:17;1.38;;;0.85;;
38909;SDS011;24676;51.360;12.354;2023-02-28T00:20:05;3.55;;;0.82;;
38909;SDS011;24676;51.360;12.354;2023-02-28T00:22:53;1.50;;;0.80;;
38909;SDS011;24676;51.360;12.354;2023-02-28T00:25:38;2.67;;;1.27;;
38909;SDS011;24676;51.360;12.354;2023-02-28T00:28:22;1.38;;;0.68;;
38909;SDS011;24676;51.360;12.354;2023-02-28T00:31:07;1.38;;;0.85;;
38909;SDS011;24676;51.360;12.354;2023-02-28T00:33:51;0.77;;;0.77;;
38909;SDS011;24676;51.360;12.354;2023-02-28T00:36:35;1.40;;;1.30;;
38909;SDS011;24676;51.360;12.354;2023-02-28T00:39:20;4.57;;;1.38;;
38909;SDS011;24676;51.360;12.354;2023-02-28T00:42:05;2.40;;;0.65;;
38909;SDS011;24676;51.360;12.354;2023-02-28T00:44:51;1.95;;;1.35;;
38909;SDS011;24676;51.360;12.354;2023-02-28T00:47:35;0.50;;;0.50;;
38909;SDS011;24676;51.360;12.354;2023-02-28T00:50:20;2.92;;;0.73;;
38909;SDS011;24676;51.360;12.354;2023-02-28T00:53:04;2.75;;;0.77;;
38909;SDS011;24676;51.360;12.354;2023-02-28T00:55:49;0.68;;;0.55;;
38909;SDS011;24676;51.360;12.354;2023-02-28T00:58:34;5.38;;;1.00;;
38909;SDS011;24676;51.360;12.354;2023-02-28T01:01:18;1.08;;;0.68;;
38909;SDS011;24676;51.360;12.354;2023-02-28T01:04:01;2.25;;;0.63;;
38909;SDS011;24676;51.360;12.354;2023-02-28T01:06:46;1.08;;;1.08;;
38909;SDS011;24676;51.360;12.354;2023-02-28T01:09:30;4.13;;;1.27;;
38909;SDS011;24676;51.360;12.354;2023-02-28T01:12:15;1.80;;;0.65;;
38909;SDS011;24676;51.360;12.354;2023-02-28T01:14:59;4.85;;;1.15;;
38909;SDS011;24676;51.360;12.354;2023-02-28T01:17:44;0.98;;;0.68;;
38909;SDS011;24676;51.360;12.354;2023-02-28T01:20:28;8.18;;;1.38;;
38909;SDS011;24676;51.360;12.354;2023-02-28T01:23:12;0.73;;;0.52;;
38909;SDS011;24676;51.360;12.354;2023-02-28T01:25:56;1.67;;;1.58;;
38909;SDS011;24676;51.360;12.354;2023-02-28T01:28:40;3.97;;;1.20;;
38909;SDS011;24676;51.360;12.354;2023-02-28T01:31:25;0.60;;;0.35;;
38909;SDS011;24676;51.360;12.354;2023-02-28T01:34:10;2.38;;;0.93;;
38909;SDS011;24676;51.360;12.354;2023-02-28T01:36:54;0.70;;;0.70;;
38909;SDS011;24676;51.360;12.354;2023-02-28T01:39:38;1.48;;;1.30;;
38909;SDS011;24676;51.360;12.354;2023-02-28T01:42:22;3.83;;;1.25;;
38909;SDS011;24676;51.360;12.354;2023-02-28T01:45:16;0.32;;;0.32;;
38909;SDS011;24676;51.360;12.354;2023-02-28T01:48:05;0.17;;;0.17;;
38909;SDS011;24676;51.360;12.354;2023-02-28T01:50:52;1.42;;;0.85;;
38909;SDS011;24676;51.360;12.354;2023-02-28T01:53:51;3.28;;;0.47;;
38909;SDS011;24676;51.360;12.354;2023-02-28T01:56:42;1.17;;;0.95;;
38909;SDS011;24676;51.360;12.354;2023-02-28T01:59:35;0.52;;;0.30;;
38909;SDS011;24676;51.360;12.354;2023-02-28T02:02:29;1.25;;;0.68;;
38909;SDS011;24676;51.360;12.354;2023-02-28T02:05:17;0.57;;;0.57;;
38909;SDS011;24676;51.360;12.354;2023-02-28T02:08:06;1.27;;;0.50;;
38909;SDS011;24676;51.360;12.354;2023-02-28T02:10:54;0.85;;;0.77;;
38909;SDS011;24676;51.360;12.354;2023-02-28T02:13:58;0.68;;;0.68;;
38909;SDS011;24676;51.360;12.354;2023-02-28T02:17:03;0.85;;;0.82;;
38909;SDS011;24676;51.360;12.354;2023-02-28T02:26:43;1.70;;;1.40;;
38909;SDS011;24676;51.360;12.354;2023-02-28T02:39:00;0.47;;;0.40;;
38909;SDS011;24676;51.360;12.354;2023-02-28T02:41:53;2.00;;;0.88;;
38909;SDS011;24676;51.360;12.354;2023-02-28T02:44:42;0.60;;;0.50;;
38909;SDS011;24676;51.360;12.354;2023-02-28T02:47:31;2.78;;;0.60;;
38909;SDS011;24676;51.360;12.354;2023-02-28T02:50:19;0.35;;;0.35;;
38909;SDS011;24676;51.360;12.354;2023-02-28T02:53:07;2.60;;;0.77;;
38909;SDS011;24676;51.360;12.354;2023-02-28T02:55:54;1.02;;;0.70;;
38909;SDS011;24676;51.360;12.354;2023-02-28T02:58:40;0.47;;;0.47;;
38909;SDS011;24676;51.360;12.354;2023-02-28T03:01:25;2.03;;;0.63;;
38909;SDS011;24676;51.360;12.354;2023-02-28T03:04:13;1.98;;;0.85;;
38909;SDS011;24676;51.360;12.354;2023-02-28T03:07:02;2.40;;;1.00;;
38909;SDS011;24676;51.360;12.354;2023-02-28T03:09:50;2.60;;;1.20;;
38909;SDS011;24676;51.360;12.354;2023-02-28T03:12:40;5.47;;;1.45;;
38909;SDS011;24676;51.360;12.354;2023-02-28T03:15:36;2.75;;;1.25;;
38909;SDS011;24676;51.360;12.354;2023-02-28T03:22:35;1.42;;;0.95;;
38909;SDS011;24676;51.360;12.354;2023-02-28T03:28:37;1.08;;;0.70;;
38909;SDS011;24676;51.360;12.354;2023-02-28T03:31:36;0.80;;;0.40;;
38909;SDS011;24676;51.360;12.354;2023-02-28T03:37:16;1.55;;;1.13;;
38909;SDS011;24676;51.360;12.354;2023-02-28T03:40:10;0.60;;;0.60;;
38909;SDS011;24676;51.360;12.354;2023-02-28T03:59:46;0.68;;;0.68;;
38909;SDS011;24676;51.360;12.354;2023-02-28T04:02:36;2.10;;;1.83;;
38909;SDS011;24676;51.360;12.354;2023-02-28T04:05:21;0.90;;;0.90;;
38909;SDS011;24676;51.360;12.354;2023-02-28T04:08:06;0.30;;;0.30;;
38909;SDS011;24676;51.360;12.354;2023-02-28T04:10:54;1.25;;;0.93;;
38909;SDS011;24676;51.360;12.354;2023-02-28T04:13:44;2.05;;;1.10;;
38909;SDS011;24676;51.360;12.354;2023-02-28T04:16:30;1.48;;;0.63;;
38909;SDS011;24676;51.360;12.354;2023-02-28T04:19:15;1.27;;;0.90;;
38909;SDS011;24676;51.360;12.354;2023-02-28T04:22:00;3.35;;;1.35;;
38909;SDS011;24676;51.360;12.354;2023-02-28T04:24:44;2.30;;;1.52;;
38909;SDS011;24676;51.360;12.354;2023-02-28T04:27:28;0.95;;;0.95;;
38909;SDS011;24676;51.360;12.354;2023-02-28T04:30:13;1.23;;;0.82;;
38909;SDS011;24676;51.360;12.354;2023-02-28T04:32:57;1.25;;;0.85;;
38909;SDS011;24676;51.360;12.354;2023-02-28T04:35:42;1.73;;;1.60;;
38909;SDS011;24676;51.360;12.354;2023-02-28T04:38:26;1.70;;;1.02;;
38909;SDS011;24676;51.360;12.354;2023-02-28T04:41:10;2.47;;;0.95;;
38909;SDS011;24676;51.360;12.354;2023-02-28T04:43:54;2.38;;;0.70;;
38909;SDS011;24676;51.360;12.354;2023-02-28T04:46:39;0.88;;;0.70;;
38909;SDS011;24676;51.360;12.354;2023-02-28T04:49:26;1.92;;;1.15;;
38909;SDS011;24676;51.360;12.354;2023-02-28T04:52:10;1.85;;;1.23;;
38909;SDS011;24676;51.360;12.354;2023-02-28T04:54:54;0.75;;;0.75;;
38909;SDS011;24676;51.360;12.354;2023-02-28T04:57:38;2.67;;;0.75;;
38909;SDS011;24676;51.360;12.354;2023-02-28T05:00:23;2.75;;;0.93;;
38909;SDS011;24676;51.360;12.354;2023-02-28T05:03:07;0.52;;;0.52;;
38909;SDS011;24676;51.360;12.354;2023-02-28T05:05:53;1.30;;;1.20;;
38909;SDS011;24676;51.360;12.354;2023-02-28T05:08:37;8.27;;;1.52;;
38909;SDS011;24676;51.360;12.354;2023-02-28T05:11:23;0.98;;;0.85;;
38909;SDS011;24676;51.360;12.354;2023-02-28T05:14:11;3.20;;;1.52;;
38909;SDS011;24676;51.360;12.354;2023-02-28T05:16:57;4.18;;;1.33;;
38909;SDS011;24676;51.360;12.354;2023-02-28T05:19:42;2.20;;;1.50;;
38909;SDS011;24676;51.360;12.354;2023-02-28T05:22:26;1.48;;;0.65;;
38909;SDS011;24676;51.360;12.354;2023-02-28T05:25:10;1.65;;;1.38;;
38909;SDS011;24676;51.360;12.354;2023-02-28T05:27:59;1.55;;;1.45;;
38909;SDS011;24676;51.360;12.354;2023-02-28T05:30:43;1.45;;;1.25;;
38909;SDS011;24676;51.360;12.354;2023-02-28T05:33:27;0.52;;;0.52;;
38909;SDS011;24676;51.360;12.354;2023-02-28T05:36:11;1.88;;;1.17;;
38909;SDS011;24676;51.360;12.354;2023-02-28T05:38:55;0.70;;;0.70;;
38909;SDS011;24676;51.360;12.354;2023-02-28T05:41:42;3.45;;;1.33;;
38909;SDS011;24676;51.360;12.354;2023-02-28T05:44:27;1.35;;;1.20;;
38909;SDS011;24676;51.360;12.354;2023-02-28T05:47:11;4.60;;;1.38;;
38909;SDS011;24676;51.360;12.354;2023-02-28T05:49:59;1.58;;;1.10;;
38909;SDS011;24676;51.360;12.354;2023-02-28T05:52:43;6.53;;;2.15;;
38909;SDS011;24676;51.360;12.354;2023-02-28T05:55:27;2.30;;;1.25;;
38909;SDS011;24676;51.360;12.354;2023-02-28T05:58:11;1.27;;;1.17;;
38909;SDS011;24676;51.360;12.354;2023-02-28T06:00:56;1.70;;;1.60;;
38909;SDS011;24676;51.360;12.354;2023-02-28T06:03:41;2.63;;;1.30;;
38909;SDS011;24676;51.360;12.354;2023-02-28T06:06:26;10.18;;;0.98;;
38909;SDS011;24676;51.360;12.354;2023-02-28T06:09:11;4.80;;;1.45;;
38909;SDS011;24676;51.360;12.354;2023-02-28T06:11:57;1.25;;;1.15;;
38909;SDS011;24676;51.360;12.354;2023-02-28T06:14:42;1.95;;;1.05;;
38909;SDS011;24676;51.360;12.354;2023-02-28T06:17:26;1.92;;;1.20;;
38909;SDS011;24676;51.360;12.354;2023-02-28T06:20:11;2.15;;;1.88;;
38909;SDS011;24676;51.360;12.354;2023-02-28T06:22:56;1.88;;;1.17;;
38909;SDS011;24676;51.360;12.354;2023-02-28T06:25:44;4.97;;;1.85;;
38909;SDS011;24676;51.360;12.354;2023-02-28T06:28:29;1.70;;;1.38;;
38909;SDS011;24676;51.360;12.354;2023-02-28T06:31:14;2.03;;;1.10;;
38909;SDS011;24676;51.360;12.354;2023-02-28T06:33:59;5.13;;;2.78;;
38909;SDS011;24676;51.360;12.354;2023-02-28T06:36:43;4.45;;;1.77;;
38909;SDS011;24676;51.360;12.354;2023-02-28T06:39:28;6.43;;;1.30;;
38909;SDS011;24676;51.360;12.354;2023-02-28T06:42:13;3.08;;;0.85;;
38909;SDS011;24676;51.360;12.354;2023-02-28T06:44:57;1.45;;;1.00;;
38909;SDS011;24676;51.360;12.354;2023-02-28T06:47:42;3.22;;;1.40;;
38909;SDS011;24676;51.360;12.354;2023-02-28T06:50:26;1.48;;;1.38;;
38909;SDS011;24676;51.360;12.354;2023-02-28T06:53:15;3.65;;;1.95;;
38909;SDS011;24676;51.360;12.354;2023-02-28T06:56:09;1.33;;;1.13;;
38909;SDS011;24676;51.360;12.354;2023-02-28T06:58:55;2.03;;;1.13;;
38909;SDS011;24676;51.360;12.354;2023-02-28T07:01:39;3.22;;;2.05;;
38909;SDS011;24676;51.360;12.354;2023-02-28T07:04:24;2.53;;;2.33;;
38909;SDS011;24676;51.360;12.354;2023-02-28T07:07:08;6.38;;;1.75;;
38909;SDS011;24676;51.360;12.354;2023-02-28T07:09:52;4.22;;;1.95;;
38909;SDS011;24676;51.360;12.354;2023-02-28T07:12:37;1.75;;;1.63;;
38909;SDS011;24676;51.360;12.354;2023-02-28T07:15:21;1.98;;;0.50;;
38909;SDS011;24676;51.360;12.354;2023-02-28T07:18:05;3.88;;;1.95;;
38909;SDS011;24676;51.360;12.354;2023-02-28T07:20:50;2.65;;;1.73;;
38909;SDS011;24676;51.360;12.354;2023-02-28T07:23:35;2.75;;;2.28;;
38909;SDS011;24676;51.360;12.354;2023-02-28T07:26:21;1.23;;;1.15;;
38909;SDS011;24676;51.360;12.354;2023-02-28T07:29:05;4.80;;;1.55;;
38909;SDS011;24676;51.360;12.354;2023-02-28T07:31:50;1.90;;;0.90;;
38909;SDS011;24676;51.360;12.354;2023-02-28T07:34:36;6.28;;;2.05;;
38909;SDS011;24676;51.360;12.354;2023-02-28T07:37:20;4.05;;;2.05;;
38909;SDS011;24676;51.360;12.354;2023-02-28T07:40:06;4.43;;;1.63;;
38909;SDS011;24676;51.360;12.354;2023-02-28T07:42:53;3.20;;;2.10;;
38909;SDS011;24676;51.360;12.354;2023-02-28T07:45:38;4.78;;;1.73;;
38909;SDS011;24676;51.360;12.354;2023-02-28T07:48:22;6.47;;;2.22;;
38909;SDS011;24676;51.360;12.354;2023-02-28T07:51:06;4.20;;;1.73;;
38909;SDS011;24676;51.360;12.354;2023-02-28T08:02:03;2.60;;;1.67;;
38909;SDS011;24676;51.360;12.354;2023-02-28T08:07:33;1.88;;;1.52;;
38909;SDS011;24676;51.360;12.354;2023-02-28T08:15:46;3.90;;;2.05;;
38909;SDS011;24676;51.360;12.354;2023-02-28T08:18:31;4.55;;;1.45;;
38909;SDS011;24676;51.360;12.354;2023-02-28T08:21:15;3.35;;;1.52;;
38909;SDS011;24676;51.360;12.354;2023-02-28T08:24:00;3.60;;;1.85;;
38909;SDS011;24676;51.360;12.354;2023-02-28T08:26:44;4.90;;;2.20;;
38909;SDS011;24676;51.360;12.354;2023-02-28T08:40:27;1.20;;;0.82;;
38909;SDS011;24676;51.360;12.354;2023-02-28T09:18:52;1.80;;;1.10;;
38909;SDS011;24676;51.360;12.354;2023-02-28T09:21:36;2.67;;;1.75;;
38909;SDS011;24676;51.360;12.354;2023-02-28T09:24:20;4.60;;;1.45;;
38909;SDS011;24676;51.360;12.354;2023-02-28T09:27:05;1.00;;;0.80;;
38909;SDS011;24676;51.360;12.354;2023-02-28T09:29:49;2.88;;;1.85;;
38909;SDS011;24676;51.360;12.354;2023-02-28T09:32:34;1.77;;;1.20;;
38909;SDS011;24676;51.360;12.354;2023-02-28T09:35:19;1.58;;;1.42;;
38909;SDS011;24676;51.360;12.354;2023-02-28T09:38:04;4.88;;;1.60;;
38909;SDS011;24676;51.360;12.354;2023-02-28T09:40:58;5.93;;;1.52;;
38909;SDS011;24676;51.360;12.354;2023-02-28T09:43:48;5.25;;;1.30;;
38909;SDS011;24676;51.360;12.354;2023-02-28T09:46:40;2.25;;;1.10;;
38909;SDS011;24676;51.360;12.354;2023-02-28T09:58:20;0.70;;;0.70;;
38909;SDS011;24676;51.360;12.354;2023-02-28T10:01:18;1.08;;;0.93;;
38909;SDS011;24676;51.360;12.354;2023-02-28T10:07:14;2.00;;;0.93;;
38909;SDS011;24676;51.360;12.354;2023-02-28T10:10:04;5.53;;;2.25;;
38909;SDS011;24676;51.360;12.354;2023-02-28T10:13:01;1.27;;;0.82;;
38909;SDS011;24676;51.360;12.354;2023-02-28T10:15:50;2.60;;;2.40;;
38909;SDS011;24676;51.360;12.354;2023-02-28T10:18:46;1.67;;;1.10;;
38909;SDS011;24676;51.360;12.354;2023-02-28T10:21:47;1.10;;;0.70;;
38909;SDS011;24676;51.360;12.354;2023-02-28T10:24:46;5.70;;;1.35;;
38909;SDS011;24676;51.360;12.354;2023-02-28T10:27:35;2.60;;;2.03;;
38909;SDS011;24676;51.360;12.354;2023-02-28T10:30:19;2.17;;;1.50;;
38909;SDS011;24676;51.360;12.354;2023-02-28T10:33:04;2.22;;;1.25;;
38909;SDS011;24676;51.360;12.354;2023-02-28T10:38:37;2.47;;;1.23;;
38909;SDS011;24676;51.360;12.354;2023-02-28T10:47:08;1.70;;;1.30;;
38909;SDS011;24676;51.360;12.354;2023-02-28T10:50:01;1.27;;;1.00;;
38909;SDS011;24676;51.360;12.354;2023-02-28T10:52:46;3.08;;;1.70;;
38909;SDS011;24676;51.360;12.354;2023-02-28T10:55:30;1.58;;;1.25;;
38909;SDS011;24676;51.360;12.354;2023-02-28T10:58:20;7.40;;;2.25;;
38909;SDS011;24676;51.360;12.354;2023-02-28T11:01:10;3.55;;;1.63;;
38909;SDS011;24676;51.360;12.354;2023-02-28T11:04:16;3.63;;;1.88;;
38909;SDS011;24676;51.360;12.354;2023-02-28T11:07:20;2.55;;;1.80;;
38909;SDS011;24676;51.360;12.354;2023-02-28T11:10:06;3.95;;;2.40;;
38909;SDS011;24676;51.360;12.354;2023-02-28T11:13:02;2.70;;;1.70;;
38909;SDS011;24676;51.360;12.354;2023-02-28T11:15:51;1.92;;;1.63;;
38909;SDS011;24676;51.360;12.354;2023-02-28T11:24:27;3.30;;;2.60;;
38909;SDS011;24676;51.360;12.354;2023-02-28T11:30:31;2.40;;;1.77;;
38909;SDS011;24676;51.360;12.354;2023-02-28T11:33:27;3.17;;;1.67;;
38909;SDS011;24676;51.360;12.354;2023-02-28T11:36:23;3.17;;;1.63;;
38909;SDS011;24676;51.360;12.354;2023-02-28T11:39:11;1.75;;;1.65;;
38909;SDS011;24676;51.360;12.354;2023-02-28T11:47:41;5.57;;;2.35;;
38909;SDS011;24676;51.360;12.354;2023-02-28T11:56:37;3.13;;;1.45;;
38909;SDS011;24676;51.360;12.354;2023-02-28T12:02:50;4.28;;;2.03;;
38909;SDS011;24676;51.360;12.354;2023-02-28T12:08:58;2.00;;;1.65;;
38909;SDS011;24676;51.360;12.354;2023-02-28T12:12:13;2.65;;;2.47;;
38909;SDS011;24676;51.360;12.354;2023-02-28T12:15:05;2.95;;;1.65;;
38909;SDS011;24676;51.360;12.354;2023-02-28T12:20:49;2.97;;;2.67;;
38909;SDS011;24676;51.360;12.354;2023-02-28T12:26:52;3.35;;;1.95;;
38909;SDS011;24676;51.360;12.354;2023-02-28T12:29:49;5.32;;;2.22;;
38909;SDS011;24676;51.360;12.354;2023-02-28T12:32:48;5.55;;;2.28;;
38909;SDS011;24676;51.360;12.354;2023-02-28T12:35:49;2.75;;;2.50;;
38909;SDS011;24676;51.360;12.354;2023-02-28T12:38:40;4.60;;;2.53;;
38909;SDS011;24676;51.360;12.354;2023-02-28T12:41:42;4.20;;;3.35;;
38909;SDS011;24676;51.360;12.354;2023-02-28T12:47:40;5.63;;;2.50;;
38909;SDS011;24676;51.360;12.354;2023-02-28T12:50:27;5.07;;;3.53;;
38909;SDS011;24676;51.360;12.354;2023-02-28T12:53:18;3.33;;;2.83;;
38909;SDS011;24676;51.360;12.354;2023-02-28T13:08:01;4.88;;;3.33;;
38909;SDS011;24676;51.360;12.354;2023-02-28T13:10:59;3.05;;;2.60;;
38909;SDS011;24676;51.360;12.354;2023-02-28T13:13:44;13.57;;;2.72;;
38909;SDS011;24676;51.360;12.354;2023-02-28T13:16:46;3.88;;;2.58;;
38909;SDS011;24676;51.360;12.354;2023-02-28T13:19:45;2.55;;;2.10;;
38909;SDS011;24676;51.360;12.354;2023-02-28T13:28:56;5.10;;;2.83;;
38909;SDS011;24676;51.360;12.354;2023-02-28T13:37:37;5.18;;;2.63;;
38909;SDS011;24676;51.360;12.354;2023-02-28T13:40:27;3.22;;;2.72;;
38909;SDS011;24676;51.360;12.354;2023-02-28T13:43:20;3.13;;;2.22;;
38909;SDS011;24676;51.360;12.354;2023-02-28T13:46:10;4.97;;;2.72;;
38909;SDS011;24676;51.360;12.354;2023-02-28T13:48:55;6.68;;;3.42;;
38909;SDS011;24676;51.360;12.354;2023-02-28T13:51:44;3.60;;;2.33;;
38909;SDS011;24676;51.360;12.354;2023-02-28T14:07:02;2.17;;;1.48;;
38909;SDS011;24676;51.360;12.354;2023-02-28T14:09:54;4.18;;;2.30;;
38909;SDS011;24676;51.360;12.354;2023-02-28T14:12:57;3.10;;;1.70;;
38909;SDS011;24676;51.360;12.354;2023-02-28T14:15:44;2.92;;;1.83;;
38909;SDS011;24676;51.360;12.354;2023-02-28T14:18:34;3.50;;;3.05;;
38909;SDS011;24676;51.360;12.354;2023-02-28T14:27:42;2.70;;;2.45;;
38909;SDS011;24676;51.360;12.354;2023-02-28T14:37:16;7.38;;;2.55;;
38909;SDS011;24676;51.360;12.354;2023-02-28T14:40:11;4.03;;;3.38;;
38909;SDS011;24676;51.360;12.354;2023-02-28T14:43:00;5.03;;;2.42;;
38909;SDS011;24676;51.360;12.354;2023-02-28T14:45:49;4.68;;;1.67;;
38909;SDS011;24676;51.360;12.354;2023-02-28T14:48:48;6.82;;;2.45;;
38909;SDS011;24676;51.360;12.354;2023-02-28T14:51:33;3.45;;;3.08;;
38909;SDS011;24676;51.360;12.354;2023-02-28T14:54:19;5.95;;;2.88;;
38909;SDS011;24676;51.360;12.354;2023-02-28T14:57:21;4.95;;;2.72;;
38909;SDS011;24676;51.360;12.354;2023-02-28T15:03:18;3.45;;;2.17;;
38909;SDS011;24676;51.360;12.354;2023-02-28T15:06:03;5.30;;;2.40;;
38909;SDS011;24676;51.360;12.354;2023-02-28T15:09:08;3.22;;;2.47;;
38909;SDS011;24676;51.360;12.354;2023-02-28T15:11:53;4.28;;;2.97;;
38909;SDS011;24676;51.360;12.354;2023-02-28T15:14:38;5.15;;;2.58;;
38909;SDS011;24676;51.360;12.354;2023-02-28T15:17:26;4.15;;;2.90;;
38909;SDS011;24676;51.360;12.354;2023-02-28T15:20:11;1.35;;;1.10;;
38909;SDS011;24676;51.360;12.354;2023-02-28T15:22:58;3.50;;;2.20;;
38909;SDS011;24676;51.360;12.354;2023-02-28T15:25:43;5.13;;;2.80;;
38909;SDS011;24676;51.360;12.354;2023-02-28T15:28:28;6.10;;;2.05;;
38909;SDS011;24676;51.360;12.354;2023-02-28T15:34:41;2.45;;;2.10;;
38909;SDS011;24676;51.360;12.354;2023-02-28T15:37:38;2.88;;;1.88;;
38909;SDS011;24676;51.360;12.354;2023-02-28T15:40:37;2.90;;;2.70;;
38909;SDS011;24676;51.360;12.354;2023-02-28T15:43:26;6.47;;;3.33;;
38909;SDS011;24676;51.360;12.354;2023-02-28T15:46:12;10.73;;;3.75;;
38909;SDS011;24676;51.360;12.354;2023-02-28T15:48:58;4.68;;;3.30;;
38909;SDS011;24676;51.360;12.354;2023-02-28T15:51:43;3.30;;;2.17;;
38909;SDS011;24676;51.360;12.354;2023-02-28T15:54:32;4.72;;;2.55;;
38909;SDS011;24676;51.360;12.354;2023-02-28T15:57:22;5.85;;;3.65;;
38909;SDS011;24676;51.360;12.354;2023-02-28T16:00:14;5.05;;;2.63;;
38909;SDS011;24676;51.360;12.354;2023-02-28T16:03:21;7.30;;;2.72;;
38909;SDS011;24676;51.360;12.354;2023-02-28T16:09:00;11.63;;;3.72;;
38909;SDS011;24676;51.360;12.354;2023-02-28T16:11:49;4.43;;;1.65;;
38909;SDS011;24676;51.360;12.354;2023-02-28T16:14:36;2.45;;;2.25;;
38909;SDS011;24676;51.360;12.354;2023-02-28T16:17:23;5.22;;;2.10;;
38909;SDS011;24676;51.360;12.354;2023-02-28T16:20:22;4.03;;;1.48;;
38909;SDS011;24676;51.360;12.354;2023-02-28T16:23:09;4.65;;;2.15;;
38909;SDS011;24676;51.360;12.354;2023-02-28T16:25:53;3.45;;;2.35;;
38909;SDS011;24676;51.360;12.354;2023-02-28T16:28:37;1.85;;;1.70;;
38909;SDS011;24676;51.360;12.354;2023-02-28T16:31:22;5.18;;;2.35;;
38909;SDS011;24676;51.360;12.354;2023-02-28T16:34:06;4.47;;;2.65;;
38909;SDS011;24676;51.360;12.354;2023-02-28T16:36:51;5.72;;;2.22;;
38909;SDS011;24676;51.360;12.354;2023-02-28T16:39:36;5.63;;;2.67;;
38909;SDS011;24676;51.360;12.354;2023-02-28T16:42:21;8.85;;;3.15;;
38909;SDS011;24676;51.360;12.354;2023-02-28T16:45:14;4.72;;;2.28;;
38909;SDS011;24676;51.360;12.354;2023-02-28T16:48:02;9.73;;;3.95;;
38909;SDS011;24676;51.360;12.354;2023-02-28T16:50:46;6.95;;;2.50;;
38909;SDS011;24676;51.360;12.354;2023-02-28T16:53:31;5.80;;;3.17;;
38909;SDS011;24676;51.360;12.354;2023-02-28T16:56:19;4.50;;;3.08;;
38909;SDS011;24676;51.360;12.354;2023-02-28T16:59:05;5.30;;;3.35;;
38909;SDS011;24676;51.360;12.354;2023-02-28T17:01:51;2.50;;;2.30;;
38909;SDS011;24676;51.360;12.354;2023-02-28T17:04:36;3.78;;;2.42;;
38909;SDS011;24676;51.360;12.354;2023-02-28T17:07:20;6.78;;;4.07;;
38909;SDS011;24676;51.360;12.354;2023-02-28T17:10:24;5.40;;;4.53;;
38909;SDS011;24676;51.360;12.354;2023-02-28T17:13:10;7.03;;;2.53;;
38909;SDS011;24676;51.360;12.354;2023-02-28T17:15:54;4.75;;;3.40;;
38909;SDS011;24676;51.360;12.354;2023-02-28T17:18:39;3.15;;;1.90;;
38909;SDS011;24676;51.360;12.354;2023-02-28T17:21:23;3.65;;;2.65;;
38909;SDS011;24676;51.360;12.354;2023-02-28T17:24:08;7.50;;;2.40;;
38909;SDS011;24676;51.360;12.354;2023-02-28T17:26:57;6.70;;;2.92;;
38909;SDS011;24676;51.360;12.354;2023-02-28T17:29:41;3.25;;;2.03;;
38909;SDS011;24676;51.360;12.354;2023-02-28T17:32:25;7.20;;;3.42;;
38909;SDS011;24676;51.360;12.354;2023-02-28T17:35:11;4.18;;;3.13;;
38909;SDS011;24676;51.360;12.354;2023-02-28T17:37:56;5.50;;;3.17;;
38909;SDS011;24676;51.360;12.354;2023-02-28T17:40:40;4.13;;;3.15;;
38909;SDS011;24676;51.360;12.354;2023-02-28T17:43:25;2.45;;;2.25;;
38909;SDS011;24676;51.360;12.354;2023-02-28T17:46:17;7.90;;;3.97;;
38909;SDS011;24676;51.360;12.354;2023-02-28T17:49:04;4.50;;;3.22;;
38909;SDS011;24676;51.360;12.354;2023-02-28T17:51:48;4.55;;;2.90;;
38909;SDS011;24676;51.360;12.354;2023-02-28T17:54:33;4.05;;;2.90;;
38909;SDS011;24676;51.360;12.354;2023-02-28T17:57:18;6.32;;;3.03;;
38909;SDS011;24676;51.360;12.354;2023-02-28T18:00:04;7.38;;;3.65;;
38909;SDS011;24676;51.360;12.354;2023-02-28T18:02:50;10.45;;;4.72;;
38909;SDS011;24676;51.360;12.354;2023-02-28T18:05:34;10.60;;;4.72;;
38909;SDS011;24676;51.360;12.354;2023-02-28T18:08:20;25.80;;;5.00;;
38909;SDS011;24676;51.360;12.354;2023-02-28T18:11:05;7.00;;;4.63;;
38909;SDS011;24676;51.360;12.354;2023-02-28T18:14:00;9.90;;;5.75;;
38909;SDS011;24676;51.360;12.354;2023-02-28T18:16:47;8.95;;;4.80;;
38909;SDS011;24676;51.360;12.354;2023-02-28T18:19:31;16.15;;;5.25;;
38909;SDS011;24676;51.360;12.354;2023-02-28T18:22:16;12.90;;;7.10;;
38909;SDS011;24676;51.360;12.354;2023-02-28T18:24:59;13.00;;;6.28;;
38909;SDS011;24676;51.360;12.354;2023-02-28T18:27:44;7.95;;;4.10;;
38909;SDS011;24676;51.360;12.354;2023-02-28T18:30:41;7.25;;;4.13;;
38909;SDS011;24676;51.360;12.354;2023-02-28T18:33:25;7.85;;;4.85;;
38909;SDS011;24676;51.360;12.354;2023-02-28T18:36:10;13.13;;;4.80;;
38909;SDS011;24676;51.360;12.354;2023-02-28T18:38:54;9.20;;;4.95;;
38909;SDS011;24676;51.360;12.354;2023-02-28T18:41:38;13.68;;;5.20;;
38909;SDS011;24676;51.360;12.354;2023-02-28T18:44:23;8.20;;;4.43;;
38909;SDS011;24676;51.360;12.354;2023-02-28T18:47:07;10.52;;;4.10;;
38909;SDS011;24676;51.360;12.354;2023-02-28T18:49:51;10.85;;;4.93;;
38909;SDS011;24676;51.360;12.354;2023-02-28T18:52:36;17.80;;;5.20;;
38909;SDS011;24676;51.360;12.354;2023-02-28T18:55:22;14.40;;;5.65;;
38909;SDS011;24676;51.360;12.354;2023-02-28T18:58:06;8.40;;;5.10;;
38909;SDS011;24676;51.360;12.354;2023-02-28T19:00:51;7.15;;;4.78;;
38909;SDS011;24676;51.360;12.354;2023-02-28T19:03:35;8.82;;;5.65;;
38909;SDS011;24676;51.360;12.354;2023-02-28T19:06:20;11.07;;;4.75;;
38909;SDS011;24676;51.360;12.354;2023-02-28T19:09:04;9.93;;;5.80;;
38909;SDS011;24676;51.360;12.354;2023-02-28T19:11:49;10.40;;;6.82;;
38909;SDS011;24676;51.360;12.354;2023-02-28T19:14:33;11.10;;;4.85;;
38909;SDS011;24676;51.360;12.354;2023-02-28T19:17:18;16.95;;;7.15;;
38909;SDS011;24676;51.360;12.354;2023-02-28T19:20:03;13.10;;;5.03;;
38909;SDS011;24676;51.360;12.354;2023-02-28T19:22:48;11.05;;;6.38;;
38909;SDS011;24676;51.360;12.354;2023-02-28T19:25:32;17.00;;;6.50;;
38909;SDS011;24676;51.360;12.354;2023-02-28T19:28:16;12.15;;;6.82;;
38909;SDS011;24676;51.360;12.354;2023-02-28T19:31:01;10.52;;;4.97;;
38909;SDS011;24676;51.360;12.354;2023-02-28T19:33:46;11.73;;;6.13;;
38909;SDS011;24676;51.360;12.354;2023-02-28T19:36:31;8.23;;;5.63;;
38909;SDS011;24676;51.360;12.354;2023-02-28T19:39:16;14.63;;;6.18;;
38909;SDS011;24676;51.360;12.354;2023-02-28T19:42:01;9.63;;;5.93;;
38909;SDS011;24676;51.360;12.354;2023-02-28T19:44:45;14.32;;;7.10;;
38909;SDS011;24676;51.360;12.354;2023-02-28T19:47:29;14.55;;;6.78;;
38909;SDS011;24676;51.360;12.354;2023-02-28T19:50:13;21.08;;;7.07;;
38909;SDS011;24676;51.360;12.354;2023-02-28T19:52:59;13.07;;;6.38;;
38909;SDS011;24676;51.360;12.354;2023-02-28T19:55:45;8.50;;;5.97;;
38909;SDS011;24676;51.360;12.354;2023-02-28T19:58:30;13.38;;;6.60;;
38909;SDS011;24676;51.360;12.354;2023-02-28T20:01:17;15.05;;;7.88;;
38909;SDS011;24676;51.360;12.354;2023-02-28T20:04:01;14.40;;;8.05;;
38909;SDS011;24676;51.360;12.354;2023-02-28T20:06:46;20.05;;;9.30;;
38909;SDS011;24676;51.360;12.354;2023-02-28T20:09:31;12.75;;;7.90;;
38909;SDS011;24676;51.360;12.354;2023-02-28T20:12:16;11.05;;;5.55;;
38909;SDS011;24676;51.360;12.354;2023-02-28T20:15:01;17.90;;;8.43;;